Time;durP1;ratioP1;P1;durP2;ratioP2;P2;SDS_P1;SDS_P2;PMS_P1;PMS_P2;Temp;Humidity;BMP_temperature;BMP_pressure;BME280_temperature;BME280_humidity;BME280_pressure;Samples;Min_cycle;Max_cycle;Signal;HPM_P1;HPM_P2
2022/06/17 00:02:08;;;;;;;4.43;2.23;;;20.10;99.90;;;;;;5049003;28;20188;-79
2022/06/17 00:04:36;;;;;;;5.23;2.40;;;20.10;99.90;;;;;;5048946;28;20274;-79
2022/06/17 00:07:08;;;;;;;3.27;2.17;;;20.10;99.90;;;;;;5049051;28;20184;-78
2022/06/17 00:09:36;;;;;;;4.73;2.40;;;20.00;99.90;;;;;;5026652;28;20676;-79
2022/06/17 00:12:07;;;;;;;4.43;2.27;;;20.00;99.90;;;;;;5012428;28;20511;-79
2022/06/17 00:17:28;;;;;;;2.50;2.10;;;20.00;99.90;;;;;;5042069;28;20290;-79
2022/06/17 00:19:57;;;;;;;3.47;2.20;;;20.00;99.90;;;;;;5013744;28;20184;-79
2022/06/17 00:22:25;;;;;;;2.70;2.20;;;20.00;99.90;;;;;;5032918;28;20302;-79
2022/06/17 00:24:53;;;;;;;3.70;2.47;;;20.00;99.90;;;;;;5014194;28;20540;-79
2022/06/17 00:27:19;;;;;;;4.63;2.23;;;20.00;99.90;;;;;;5037745;28;20184;-78
2022/06/17 00:29:46;;;;;;;3.73;2.30;;;20.00;99.90;;;;;;5027739;28;20188;-79
2022/06/17 00:32:12;;;;;;;4.37;2.30;;;19.90;99.90;;;;;;5046212;28;20180;-79
2022/06/17 00:34:45;;;;;;;3.60;1.90;;;20.00;99.90;;;;;;5031662;28;20199;-79
2022/06/17 00:37:14;;;;;;;4.20;2.10;;;20.00;99.90;;;;;;5031401;28;20217;-79
2022/06/17 00:39:46;;;;;;;2.97;2.00;;;19.90;99.90;;;;;;5016680;28;20177;-79
2022/06/17 00:42:15;;;;;;;2.23;1.90;;;19.90;99.90;;;;;;5032040;28;20177;-79
2022/06/17 00:44:59;;;;;;;3.23;2.17;;;20.00;99.90;;;;;;5049148;28;20179;-79
2022/06/17 00:48:28;;;;;;;3.53;1.80;;;20.00;99.90;;;;;;5052973;28;20675;-80
2022/06/17 00:51:07;;;;;;;4.57;2.00;;;20.00;99.90;;;;;;5035187;28;20191;-80
2022/06/17 00:53:50;;;;;;;3.97;1.87;;;19.90;99.90;;;;;;5053740;28;20209;-78
2022/06/17 00:56:39;;;;;;;3.20;2.00;;;19.90;99.90;;;;;;5034795;28;20215;-79
2022/06/17 00:59:14;;;;;;;2.70;1.90;;;19.90;99.90;;;;;;5038426;28;20942;-79
2022/06/17 01:01:53;;;;;;;3.77;1.87;;;19.80;99.90;;;;;;5051208;28;20179;-79
2022/06/17 01:04:39;;;;;;;2.40;2.10;;;19.90;99.90;;;;;;5032086;28;20643;-79
2022/06/17 01:07:19;;;;;;;2.80;2.00;;;19.80;99.90;;;;;;5060602;28;20211;-79
2022/06/17 01:09:58;;;;;;;1.97;1.60;;;19.80;99.90;;;;;;5033349;28;20695;-79
2022/06/17 01:12:33;;;;;;;2.20;1.83;;;19.80;99.90;;;;;;5035433;28;20281;-78
2022/06/17 01:15:04;;;;;;;1.83;1.70;;;19.90;99.90;;;;;;5048316;28;20187;-79
2022/06/17 01:17:31;;;;;;;2.83;1.63;;;19.90;99.90;;;;;;5030529;28;20236;-79
2022/06/17 01:20:04;;;;;;;3.43;2.03;;;19.90;99.90;;;;;;5036264;28;20180;-79
2022/06/17 01:22:56;;;;;;;2.17;1.80;;;19.90;99.90;;;;;;5052632;28;20214;-79
2022/06/17 01:25:44;;;;;;;3.50;2.13;;;19.90;99.90;;;;;;5039968;28;20184;-79
2022/06/17 01:28:16;;;;;;;2.10;1.70;;;19.90;99.90;;;;;;5037978;28;20604;-78
2022/06/17 01:30:53;;;;;;;4.87;1.90;;;19.80;99.90;;;;;;5041170;28;20188;-79
2022/06/17 01:33:31;;;;;;;2.43;1.80;;;19.80;99.90;;;;;;5052269;28;20230;-79
2022/06/17 01:36:10;;;;;;;2.30;1.80;;;19.80;99.90;;;;;;5048912;28;20188;-79
2022/06/17 01:38:41;;;;;;;8.83;1.97;;;19.80;99.90;;;;;;5048848;28;20184;-78
2022/06/17 01:41:08;;;;;;;4.20;1.80;;;19.80;99.90;;;;;;5017796;28;20208;-78
2022/06/17 01:44:23;;;;;;;4.17;1.80;;;19.80;99.90;;;;;;5052330;28;20666;-79
2022/06/17 01:46:55;;;;;;;3.70;2.07;;;19.70;99.90;;;;;;5034986;28;20195;-79
2022/06/17 01:49:26;;;;;;;6.37;1.77;;;19.80;99.90;;;;;;5052553;28;20179;-79
2022/06/17 01:52:20;;;;;;;3.87;2.00;;;19.70;99.90;;;;;;5028765;28;20718;-79
2022/06/17 01:54:56;;;;;;;2.30;1.70;;;19.70;99.90;;;;;;5049945;28;20159;-79
2022/06/17 01:57:32;;;;;;;7.53;2.00;;;19.80;99.90;;;;;;5051516;28;20199;-78
2022/06/17 02:00:16;;;;;;;3.63;1.87;;;19.80;99.90;;;;;;5052968;28;20190;-79
2022/06/17 02:02:48;;;;;;;3.43;2.27;;;19.80;99.90;;;;;;5030743;28;20183;-80
2022/06/17 02:05:15;;;;;;;2.43;1.80;;;19.80;99.90;;;;;;5023554;28;20182;-79
2022/06/17 02:07:54;;;;;;;2.50;1.80;;;19.70;99.90;;;;;;5052140;28;20563;-79
2022/06/17 02:10:31;;;;;;;3.17;1.70;;;19.70;99.90;;;;;;5052150;28;20194;-79
2022/06/17 02:13:04;;;;;;;4.27;1.70;;;19.70;99.90;;;;;;5050465;28;20195;-79
2022/06/17 02:15:31;;;;;;;6.83;2.10;;;19.70;99.90;;;;;;5046703;28;20184;-79
2022/06/17 02:18:01;;;;;;;2.00;1.80;;;19.70;99.90;;;;;;5047764;28;20691;-79
2022/06/17 02:20:28;;;;;;;4.40;1.90;;;19.70;99.90;;;;;;5039336;28;20248;-78
2022/06/17 02:22:57;;;;;;;2.30;2.10;;;19.70;99.90;;;;;;5033562;28;20644;-79
2022/06/17 02:25:30;;;;;;;2.07;1.87;;;19.80;99.90;;;;;;5032166;28;20184;-79
2022/06/17 02:28:02;;;;;;;2.87;1.80;;;19.80;99.90;;;;;;5048113;28;20180;-79
2022/06/17 02:30:30;;;;;;;2.90;2.00;;;19.90;99.90;;;;;;5015523;28;20684;-80
2022/06/17 02:33:02;;;;;;;4.90;2.10;;;19.80;99.90;;;;;;5060896;28;20294;-79
2022/06/17 02:35:56;;;;;;;4.17;2.00;;;19.80;99.90;;;;;;5051822;28;20233;-78
2022/06/17 02:38:28;;;;;;;4.07;1.80;;;19.90;99.90;;;;;;5051271;28;20192;-79
2022/06/17 02:41:05;;;;;;;2.00;1.73;;;19.90;99.90;;;;;;5051113;28;20184;-78
2022/06/17 02:43:47;;;;;;;3.60;1.93;;;19.90;99.90;;;;;;5018948;28;20191;-79
2022/06/17 02:46:34;;;;;;;5.00;2.03;;;20.00;99.90;;;;;;5028466;28;20660;-79
2022/06/17 02:49:11;;;;;;;2.80;1.90;;;20.00;99.90;;;;;;5033910;28;20195;-79
2022/06/17 02:51:43;;;;;;;2.47;2.00;;;19.90;99.90;;;;;;5033948;28;20531;-79
2022/06/17 02:54:21;;;;;;;2.87;1.70;;;19.90;99.90;;;;;;5035692;28;20207;-80
2022/06/17 02:56:57;;;;;;;4.10;2.00;;;20.00;99.90;;;;;;5033245;28;20207;-79
2022/06/17 02:59:48;;;;;;;5.40;2.13;;;20.00;99.90;;;;;;5032797;28;20233;-79
2022/06/17 03:02:28;;;;;;;2.97;2.00;;;20.10;99.90;;;;;;5039034;28;20548;-79
2022/06/17 03:04:55;;;;;;;3.23;2.40;;;20.10;99.90;;;;;;5034438;28;20183;-79
2022/06/17 03:07:28;;;;;;;3.60;2.00;;;20.20;99.90;;;;;;5036606;28;20173;-79
2022/06/17 03:09:54;;;;;;;3.17;1.93;;;20.20;99.90;;;;;;5042912;28;20255;-79
2022/06/17 03:12:26;;;;;;;4.30;2.33;;;20.30;99.90;;;;;;5034077;28;20279;-80
2022/06/17 03:15:15;;;;;;;5.10;2.00;;;20.30;99.90;;;;;;5033517;28;20428;-79
2022/06/17 03:17:45;;;;;;;2.30;2.10;;;20.30;99.90;;;;;;5006102;28;20235;-79
2022/06/17 03:20:26;;;;;;;2.73;2.37;;;20.30;99.90;;;;;;5050414;28;20180;-79
2022/06/17 03:23:03;;;;;;;2.53;2.20;;;20.30;99.90;;;;;;5033670;28;20182;-79
2022/06/17 03:25:54;;;;;;;2.23;2.03;;;20.40;99.90;;;;;;5050307;28;20186;-79
2022/06/17 03:28:29;;;;;;;3.63;2.20;;;20.40;99.90;;;;;;5032608;28;20271;-78
2022/06/17 03:31:34;;;;;;;3.70;2.20;;;20.40;99.90;;;;;;5014989;28;20694;-79
2022/06/17 03:34:13;;;;;;;2.80;2.27;;;20.40;99.90;;;;;;5037780;28;20825;-79
2022/06/17 03:37:13;;;;;;;2.30;2.10;;;20.40;99.90;;;;;;5033573;28;20207;-79
2022/06/17 03:39:54;;;;;;;3.73;2.10;;;20.40;99.90;;;;;;5033100;28;20190;-80
2022/06/17 03:42:29;;;;;;;5.00;2.40;;;20.40;99.90;;;;;;5013764;28;20184;-79
2022/06/17 03:45:10;;;;;;;3.27;2.40;;;20.40;99.90;;;;;;5034858;28;20187;-79
2022/06/17 03:47:57;;;;;;;4.63;2.23;;;20.40;99.90;;;;;;5031506;28;20184;-79
2022/06/17 03:50:35;;;;;;;2.47;2.20;;;20.40;99.90;;;;;;5058262;28;20962;-79
2022/06/17 03:53:27;;;;;;;6.17;2.50;;;20.40;99.90;;;;;;5035275;28;20187;-79
2022/06/17 03:56:23;;;;;;;3.20;2.80;;;20.40;99.90;;;;;;5044616;28;20195;-79
2022/06/17 03:58:55;;;;;;;2.93;2.40;;;20.40;99.90;;;;;;5041117;28;20242;-80
2022/06/17 04:01:56;;;;;;;6.10;2.60;;;20.40;99.90;;;;;;5047982;28;20278;-79
2022/06/17 04:04:28;;;;;;;5.40;2.70;;;20.40;99.90;;;;;;5040583;28;20179;-79
2022/06/17 04:06:57;;;;;;;3.50;2.40;;;20.50;99.90;;;;;;5064748;28;20179;-79
2022/06/17 04:09:31;;;;;;;4.07;2.60;;;20.50;99.90;;;;;;5033511;28;20188;-79
2022/06/17 04:12:20;;;;;;;4.30;2.53;;;20.50;99.90;;;;;;5039915;28;20179;-79
2022/06/17 04:15:31;;;;;;;2.50;2.30;;;20.60;99.90;;;;;;5036295;28;20518;-79
2022/06/17 04:17:58;;;;;;;2.50;2.30;;;20.60;99.90;;;;;;5035920;28;20200;-79
2022/06/17 04:20:55;;;;;;;3.80;2.30;;;20.70;99.90;;;;;;5042978;28;20230;-79
2022/06/17 04:23:27;;;;;;;3.27;2.33;;;20.80;99.90;;;;;;5034146;28;20184;-79
2022/06/17 04:25:56;;;;;;;2.40;2.20;;;20.90;99.90;;;;;;5054364;28;20192;-80
2022/06/17 04:28:49;;;;;;;2.60;2.40;;;21.00;99.90;;;;;;5044315;28;20187;-79
2022/06/17 04:31:34;;;;;;;3.37;2.33;;;21.10;99.90;;;;;;5036643;28;20190;-79
2022/06/17 04:34:15;;;;;;;3.50;2.40;;;21.30;99.90;;;;;;5046634;28;20212;-79
2022/06/17 04:37:02;;;;;;;2.40;2.20;;;21.40;99.90;;;;;;5046523;28;20250;-79
2022/06/17 04:39:36;;;;;;;2.85;2.30;;;21.50;99.90;;;;;;5036528;28;20180;-79
2022/06/17 04:42:16;;;;;;;3.33;2.40;;;21.60;99.90;;;;;;5031736;28;20174;-79
2022/06/17 04:44:43;;;;;;;4.33;2.30;;;21.70;99.90;;;;;;5051053;28;20183;-79
2022/06/17 04:47:17;;;;;;;3.60;2.30;;;21.80;99.90;;;;;;5045823;28;20184;-80
2022/06/17 04:49:49;;;;;;;5.80;2.47;;;21.90;99.90;;;;;;5052979;28;20188;-79
2022/06/17 04:52:38;;;;;;;3.10;2.23;;;22.10;99.90;;;;;;5052427;28;20183;-79
2022/06/17 04:55:42;;;;;;;3.13;2.10;;;22.30;99.90;;;;;;5052196;28;20280;-80
2022/06/17 04:58:16;;;;;;;8.43;2.37;;;22.30;99.90;;;;;;5035373;28;20225;-80
2022/06/17 05:00:54;;;;;;;2.60;2.10;;;22.40;99.90;;;;;;5034272;28;20180;-79
2022/06/17 05:03:28;;;;;;;3.75;2.00;;;22.40;99.90;;;;;;5041482;28;20564;-79
2022/06/17 05:05:59;;;;;;;2.28;1.90;;;22.40;99.90;;;;;;5060008;28;20221;-80
2022/06/17 05:08:41;;;;;;;6.38;2.28;;;22.40;99.90;;;;;;5035601;28;20204;-79
2022/06/17 05:11:34;;;;;;;3.20;2.00;;;22.30;99.90;;;;;;5036216;28;20190;-79
2022/06/17 05:14:52;;;;;;;3.53;2.10;;;22.30;99.90;;;;;;5063354;28;20192;-79
2022/06/17 05:17:20;;;;;;;7.72;2.58;;;22.30;99.90;;;;;;5038646;28;20564;-79
2022/06/17 05:19:48;;;;;;;6.70;2.30;;;22.40;99.90;;;;;;5034145;28;20203;-79
2022/06/17 05:22:36;;;;;;;5.07;2.78;;;22.40;99.90;;;;;;5035861;28;20620;-79
2022/06/17 05:25:21;;;;;;;3.10;2.08;;;22.40;99.90;;;;;;5053004;28;20180;-79
2022/06/17 05:27:47;;;;;;;5.93;2.00;;;22.50;99.90;;;;;;5053633;28;20191;-79
2022/06/17 05:30:14;;;;;;;3.70;2.20;;;22.60;99.90;;;;;;5034744;28;20188;-79
2022/06/17 05:32:54;;;;;;;2.60;2.00;;;22.70;99.90;;;;;;5034587;28;20218;-79
2022/06/17 05:35:23;;;;;;;5.10;1.90;;;22.80;99.90;;;;;;5035942;28;20179;-79
2022/06/17 05:37:49;;;;;;;4.45;2.10;;;22.80;99.90;;;;;;5046807;28;20215;-79
2022/06/17 05:40:21;;;;;;;10.88;2.10;;;22.90;99.90;;;;;;5058380;28;20179;-79
2022/06/17 05:42:50;;;;;;;5.03;2.15;;;23.00;99.90;;;;;;5041424;28;20176;-79
2022/06/17 05:45:24;;;;;;;2.88;2.08;;;23.10;99.90;;;;;;5049949;28;20186;-79
2022/06/17 05:47:52;;;;;;;2.78;2.00;;;23.40;99.90;;;;;;5048957;28;20269;-80
2022/06/17 05:50:29;;;;;;;7.32;2.20;;;23.70;99.90;;;;;;5046138;28;20180;-80
2022/06/17 05:52:59;;;;;;;3.50;2.20;;;24.00;99.90;;;;;;5062822;28;20183;-80
2022/06/17 05:55:28;;;;;;;5.13;1.90;;;24.10;99.90;;;;;;5035184;28;20188;-80
2022/06/17 05:57:55;;;;;;;3.33;2.05;;;24.00;99.90;;;;;;5049612;28;20216;-80
2022/06/17 06:00:23;;;;;;;2.33;1.80;;;24.20;99.90;;;;;;5043577;28;20191;-80
2022/06/17 06:02:54;;;;;;;2.85;2.25;;;24.50;99.90;;;;;;5033924;28;20187;-79
2022/06/17 06:05:33;;;;;;;5.10;2.20;;;24.50;99.90;;;;;;5051923;28;20206;-80
2022/06/17 06:08:02;;;;;;;5.32;1.92;;;24.60;99.90;;;;;;5051448;28;20209;-80
2022/06/17 06:10:28;;;;;;;6.93;2.45;;;24.60;99.90;;;;;;5047865;28;20186;-79
2022/06/17 06:13:00;;;;;;;2.20;2.00;;;24.60;99.90;;;;;;5050425;28;20175;-79
2022/06/17 06:15:40;;;;;;;2.88;2.05;;;24.50;99.90;;;;;;5051431;28;20203;-79
2022/06/17 06:18:23;;;;;;;6.07;2.22;;;24.50;99.90;;;;;;5062858;28;20203;-80
2022/06/17 06:20:51;;;;;;;5.35;2.00;;;24.50;99.90;;;;;;5041016;28;20180;-81
2022/06/17 06:23:17;;;;;;;6.03;2.40;;;24.50;99.90;;;;;;5016635;28;20326;-80
2022/06/17 06:25:45;;;;;;;4.60;2.30;;;24.50;99.90;;;;;;5043823;28;20664;-80
2022/06/17 06:28:22;;;;;;;3.83;2.92;;;24.60;99.90;;;;;;5033842;28;20199;-80
2022/06/17 06:31:02;;;;;;;4.88;2.83;;;24.70;99.90;;;;;;5048755;28;20195;-80
2022/06/17 06:33:31;;;;;;;4.40;2.70;;;25.10;99.90;;;;;;5050071;28;20207;-80
2022/06/17 06:36:01;;;;;;;4.40;2.72;;;25.50;99.90;;;;;;5047254;28;20187;-80
2022/06/17 06:38:28;;;;;;;5.30;2.45;;;25.50;99.90;;;;;;5051110;28;20203;-79
2022/06/17 06:40:54;;;;;;;4.47;2.50;;;25.40;99.90;;;;;;5057622;28;20202;-80
2022/06/17 06:43:26;;;;;;;6.15;2.33;;;25.60;99.90;;;;;;5031597;28;20180;-80
2022/06/17 06:45:55;;;;;;;5.47;2.53;;;26.00;99.90;;;;;;5036625;28;20179;-80
2022/06/17 06:48:27;;;;;;;3.70;2.50;;;26.20;99.90;;;;;;5041894;28;20220;-80
2022/06/17 06:50:53;;;;;;;3.00;2.70;;;26.20;99.90;;;;;;5030156;28;20211;-80
2022/06/17 06:53:22;;;;;;;5.22;3.10;;;26.30;99.90;;;;;;5051302;28;20211;-80
2022/06/17 06:55:49;;;;;;;12.15;4.18;;;26.30;99.90;;;;;;5033519;28;20248;-80
2022/06/17 06:58:23;;;;;;;9.38;5.65;;;26.30;99.90;;;;;;5034447;28;20207;-80
2022/06/17 07:00:57;;;;;;;7.93;5.45;;;26.50;99.90;;;;;;5049097;28;20187;-80
2022/06/17 07:03:37;;;;;;;7.63;5.10;;;26.50;99.90;;;;;;5031405;28;20205;-80
2022/06/17 07:06:06;;;;;;;9.55;5.80;;;26.60;99.90;;;;;;5048233;28;20186;-80
2022/06/17 07:08:36;;;;;;;7.32;4.80;;;26.70;99.90;;;;;;5020555;28;20206;-80
2022/06/17 07:11:07;;;;;;;10.38;5.55;;;26.80;99.90;;;;;;5025243;28;20251;-80
2022/06/17 07:13:38;;;;;;;11.32;7.38;;;26.90;99.90;;;;;;5040280;28;20390;-80
2022/06/17 07:16:12;;;;;;;13.48;9.25;;;26.90;99.90;;;;;;5043599;28;20255;-80
2022/06/17 07:18:39;;;;;;;14.00;9.07;;;27.00;99.90;;;;;;5021452;28;20215;-80
2022/06/17 07:21:12;;;;;;;11.88;9.02;;;27.10;99.90;;;;;;5024728;28;20705;-80
2022/06/17 07:23:43;;;;;;;18.15;10.02;;;27.10;99.90;;;;;;5040323;28;20641;-80
2022/06/17 07:26:22;;;;;;;14.38;9.18;;;27.20;99.90;;;;;;5029839;28;20184;-80
2022/06/17 07:29:04;;;;;;;13.40;7.72;;;27.20;99.90;;;;;;5036294;28;20206;-80
2022/06/17 07:31:34;;;;;;;14.18;8.02;;;27.10;99.90;;;;;;5035745;28;20176;-81
2022/06/17 07:34:02;;;;;;;11.38;7.38;;;27.30;99.90;;;;;;5029265;28;20282;-80
2022/06/17 07:42:09;;;;;;;9.90;7.45;;;27.40;99.90;;;;;;5044574;28;20228;-80
2022/06/17 07:44:37;;;;;;;11.52;6.75;;;27.50;99.90;;;;;;5048726;28;20197;-80
2022/06/17 07:47:05;;;;;;;9.02;6.25;;;27.50;99.90;;;;;;5030169;28;20215;-80
2022/06/17 07:49:32;;;;;;;10.95;5.90;;;27.60;99.90;;;;;;5046932;28;20746;-80
2022/06/17 07:51:58;;;;;;;9.60;4.70;;;27.60;99.90;;;;;;5033117;28;20191;-80
2022/06/17 07:54:32;;;;;;;9.38;4.80;;;27.70;99.90;;;;;;5040928;28;20188;-80
2022/06/17 07:57:11;;;;;;;6.90;4.88;;;27.80;99.90;;;;;;5050879;28;20706;-81
2022/06/17 07:59:39;;;;;;;7.78;5.40;;;27.90;99.90;;;;;;5044174;28;21632;-81
2022/06/17 08:02:06;;;;;;;6.78;5.15;;;27.90;99.90;;;;;;5036898;28;20270;-79
2022/06/17 08:04:42;;;;;;;12.77;6.97;;;27.90;99.90;;;;;;5029165;28;20172;-81
2022/06/17 08:07:10;;;;;;;12.80;6.30;;;28.10;99.90;;;;;;5050259;28;20195;-80
2022/06/17 08:09:37;;;;;;;12.10;6.60;;;28.20;99.90;;;;;;5068530;28;20179;-80
2022/06/17 08:12:14;;;;;;;8.65;6.05;;;28.20;99.90;;;;;;5069319;28;20195;-80
2022/06/17 08:14:47;;;;;;;8.65;5.85;;;28.30;99.90;;;;;;5040777;28;20184;-80
2022/06/17 08:17:17;;;;;;;6.57;4.50;;;28.30;99.90;;;;;;5037000;28;21039;-78
2022/06/17 08:19:43;;;;;;;6.60;3.80;;;28.40;99.90;;;;;;5029393;28;20208;-80
2022/06/17 08:22:12;;;;;;;8.45;4.28;;;28.30;99.90;;;;;;5036409;28;20175;-80
2022/06/17 08:24:38;;;;;;;6.30;3.38;;;28.40;99.90;;;;;;5035588;28;20204;-80
2022/06/17 08:27:08;;;;;;;8.30;4.40;;;28.60;99.90;;;;;;5033459;28;20187;-80
2022/06/17 08:29:34;;;;;;;7.40;3.70;;;28.70;99.90;;;;;;5059891;28;20184;-80
2022/06/17 08:34:46;;;;;;;7.03;3.78;;;28.80;99.90;;;;;;5051377;28;20229;-81
2022/06/17 08:37:14;;;;;;;6.53;3.92;;;29.00;99.90;;;;;;5024376;28;20250;-80
2022/06/17 08:39:49;;;;;;;9.45;4.18;;;29.00;99.90;;;;;;5043239;28;20962;-80
2022/06/17 08:43:01;;;;;;;13.48;4.35;;;29.00;99.90;;;;;;5045803;28;20194;-80
2022/06/17 08:45:48;;;;;;;7.38;3.65;;;29.00;99.90;;;;;;5029175;28;20199;-80
2022/06/17 08:48:36;;;;;;;8.15;2.92;;;29.10;99.90;;;;;;5044876;28;20196;-81
2022/06/17 08:51:48;;;;;;;8.13;4.15;;;29.10;99.90;;;;;;5028284;28;20679;-79
2022/06/17 08:54:44;;;;;;;5.90;4.32;;;29.20;99.90;;;;;;5046713;28;20194;-80
2022/06/17 08:57:24;;;;;;;5.22;4.10;;;29.40;99.90;;;;;;5042130;28;20604;-80
2022/06/17 09:00:28;;;;;;;9.02;4.40;;;29.50;99.90;;;;;;5050395;28;20266;-80
2022/06/17 09:03:24;;;;;;;9.18;4.35;;;29.60;99.90;;;;;;5034840;28;20202;-80
2022/06/17 09:06:13;;;;;;;7.40;4.13;;;29.60;99.90;;;;;;5034793;28;20191;-80
2022/06/17 09:09:16;;;;;;;8.45;4.20;;;29.70;99.90;;;;;;5030451;28;20173;-80
2022/06/17 09:12:34;;;;;;;11.48;3.90;;;29.80;99.90;;;;;;5040623;28;20171;-80
2022/06/17 09:15:18;;;;;;;5.82;3.45;;;30.00;99.90;;;;;;5037841;28;20186;-80
2022/06/17 09:17:54;;;;;;;9.65;3.72;;;30.00;99.90;;;;;;5034732;28;20215;-80
2022/06/17 09:20:31;;;;;;;5.03;3.33;;;30.10;99.90;;;;;;5024747;28;20199;-80
2022/06/17 09:23:05;;;;;;;7.28;3.50;;;30.10;99.90;;;;;;5044217;28;20179;-80
2022/06/17 09:25:59;;;;;;;6.20;3.50;;;30.20;99.90;;;;;;5039856;28;20180;-80
2022/06/17 09:28:46;;;;;;;9.13;3.45;;;30.20;99.90;;;;;;5034461;28;20208;-80
2022/06/17 09:31:43;;;;;;;6.20;3.65;;;30.30;99.90;;;;;;5046545;28;20195;-80
2022/06/17 09:34:57;;;;;;;7.97;3.70;;;30.50;99.90;;;;;;5037199;28;20231;-80
2022/06/17 09:38:16;;;;;;;9.68;3.72;;;30.60;99.90;;;;;;5042412;28;20223;-80
2022/06/17 09:40:52;;;;;;;5.93;3.60;;;30.60;99.90;;;;;;5038801;28;20241;-80
2022/06/17 09:43:59;;;;;;;10.82;3.38;;;30.70;99.90;;;;;;5043564;28;20176;-80
2022/06/17 09:46:39;;;;;;;5.80;3.05;;;30.70;99.90;;;;;;5031268;28;20551;-80
2022/06/17 09:49:28;;;;;;;4.32;2.72;;;30.90;99.90;;;;;;5051553;28;20176;-80
2022/06/17 09:52:26;;;;;;;7.30;3.53;;;30.90;99.90;;;;;;5063369;28;20278;-81
2022/06/17 09:55:15;;;;;;;6.47;3.50;;;31.00;99.90;;;;;;5048691;28;20766;-79
2022/06/17 09:57:56;;;;;;;7.43;3.33;;;31.00;99.90;;;;;;5027792;28;20220;-79
2022/06/17 10:00:32;;;;;;;6.03;3.30;;;31.10;99.90;;;;;;5025359;28;20266;-79
2022/06/17 10:03:25;;;;;;;8.43;3.20;;;31.10;99.90;;;;;;5042818;28;20179;-80
2022/06/17 10:05:59;;;;;;;8.45;3.63;;;31.20;99.90;;;;;;5025424;28;20183;-79
2022/06/17 10:09:07;;;;;;;6.28;3.65;;;31.30;99.90;;;;;;5036356;28;20188;-80
2022/06/17 10:12:11;;;;;;;7.72;3.30;;;31.30;99.90;;;;;;5041192;28;20203;-80
2022/06/17 10:15:21;;;;;;;6.63;2.78;;;31.30;99.90;;;;;;5034202;28;20192;-79
2022/06/17 10:18:34;;;;;;;4.88;3.17;;;31.20;99.90;;;;;;5044606;28;20203;-78
2022/06/17 10:21:23;;;;;;;9.48;3.65;;;31.20;99.90;;;;;;5026256;28;20325;-80
2022/06/17 10:24:40;;;;;;;5.03;2.90;;;31.30;99.90;;;;;;5046978;28;20181;-80
2022/06/17 10:27:21;;;;;;;6.25;2.90;;;31.30;99.90;;;;;;5032205;28;20196;-79
2022/06/17 10:30:13;;;;;;;6.82;3.55;;;31.30;99.90;;;;;;5054045;28;20184;-80
2022/06/17 10:32:47;;;;;;;6.28;2.70;;;31.30;99.90;;;;;;5043425;28;20191;-79
2022/06/17 10:35:36;;;;;;;6.85;2.65;;;31.20;99.90;;;;;;5036590;28;20191;-79
2022/06/17 10:38:11;;;;;;;8.32;3.05;;;31.20;99.90;;;;;;5041243;28;20731;-82
2022/06/17 10:40:41;;;;;;;6.90;3.17;;;31.20;99.90;;;;;;5027734;28;20264;-81
2022/06/17 10:43:19;;;;;;;5.82;3.15;;;31.10;99.90;;;;;;5057184;28;20706;-80
2022/06/17 10:45:51;;;;;;;7.07;3.40;;;31.20;99.90;;;;;;5034645;28;20194;-81
2022/06/17 10:48:44;;;;;;;5.43;3.03;;;31.10;99.90;;;;;;5031468;28;20286;-80
2022/06/17 10:51:16;;;;;;;10.00;3.50;;;30.90;99.90;;;;;;5040898;28;20191;-83
2022/06/17 10:53:54;;;;;;;6.43;3.65;;;31.10;99.90;;;;;;5042288;28;20188;-80
2022/06/17 10:56:27;;;;;;;5.35;3.10;;;31.00;99.90;;;;;;5046711;28;20191;-80
2022/06/17 10:59:02;;;;;;;7.80;2.95;;;31.10;99.90;;;;;;5050649;28;20249;-80
2022/06/17 11:01:50;;;;;;;6.38;3.05;;;31.10;99.90;;;;;;5031683;28;20190;-80
2022/06/17 11:04:30;;;;;;;8.15;3.33;;;31.20;99.90;;;;;;5044402;28;20259;-82
2022/06/17 11:07:33;;;;;;;3.72;2.70;;;31.20;99.90;;;;;;5022646;28;20184;-80
2022/06/17 11:10:06;;;;;;;8.32;3.00;;;30.90;99.90;;;;;;5043424;28;20658;-80
2022/06/17 11:12:42;;;;;;;7.40;2.90;;;31.10;99.90;;;;;;5041934;28;20187;-80
2022/06/17 11:15:29;;;;;;;8.52;2.63;;;31.30;99.90;;;;;;5042879;28;20320;-80
2022/06/17 11:18:06;;;;;;;5.75;2.75;;;31.20;99.90;;;;;;5020566;28;20261;-80
2022/06/17 11:20:38;;;;;;;6.00;2.67;;;31.20;99.90;;;;;;5031848;28;20528;-80
2022/06/17 11:23:22;;;;;;;5.47;3.17;;;31.20;99.90;;;;;;5041215;28;20215;-80
2022/06/17 11:26:12;;;;;;;5.00;2.53;;;31.20;99.90;;;;;;5036110;28;20667;-80
2022/06/17 11:28:47;;;;;;;6.97;2.60;;;31.00;99.90;;;;;;5029281;28;20198;-80
2022/06/17 11:31:25;;;;;;;4.78;2.42;;;31.20;99.90;;;;;;5027750;28;20629;-79
2022/06/17 11:34:09;;;;;;;3.28;2.30;;;31.20;99.90;;;;;;5043729;28;20211;-79
2022/06/17 11:36:55;;;;;;;5.25;2.40;;;31.20;99.90;;;;;;5031643;28;20195;-80
2022/06/17 11:39:32;;;;;;;4.28;2.67;;;31.20;99.90;;;;;;5029723;28;20186;-80
2022/06/17 11:42:02;;;;;;;4.45;2.50;;;31.20;99.90;;;;;;5031175;28;20743;-80
2022/06/17 11:44:29;;;;;;;3.88;2.42;;;31.20;99.90;;;;;;5025853;28;20574;-80
2022/06/17 11:47:03;;;;;;;8.38;2.85;;;31.00;99.90;;;;;;5030697;28;20183;-80
2022/06/17 11:49:36;;;;;;;4.38;2.30;;;31.00;99.90;;;;;;5032177;28;20222;-80
2022/06/17 11:52:08;;;;;;;3.33;2.10;;;31.00;99.90;;;;;;5037104;28;20187;-80
2022/06/17 11:54:52;;;;;;;3.97;2.50;;;31.00;99.90;;;;;;5065501;28;20227;-80
2022/06/17 11:57:31;;;;;;;3.58;2.20;;;31.00;99.90;;;;;;5024448;28;20838;-80
2022/06/17 12:00:04;;;;;;;3.58;2.35;;;31.10;99.90;;;;;;5025906;28;20192;-80
2022/06/17 12:02:31;;;;;;;7.93;2.30;;;31.10;99.90;;;;;;5042431;28;20176;-80
2022/06/17 12:05:28;;;;;;;4.93;2.33;;;31.00;99.90;;;;;;5033900;28;20270;-80
2022/06/17 12:08:26;;;;;;;4.47;2.17;;;31.00;99.90;;;;;;5028459;28;20191;-80
2022/06/17 12:11:02;;;;;;;3.72;2.40;;;31.10;99.90;;;;;;5046665;28;20222;-80
2022/06/17 12:13:40;;;;;;;4.10;2.25;;;31.00;99.90;;;;;;5033313;28;20539;-80
2022/06/17 12:16:39;;;;;;;2.70;1.95;;;30.90;99.90;;;;;;5023797;28;20191;-80
2022/06/17 12:19:16;;;;;;;5.50;2.00;;;31.00;99.90;;;;;;5035595;28;20919;-80
2022/06/17 12:21:58;;;;;;;2.70;1.90;;;30.90;99.90;;;;;;5036371;28;20694;-80
2022/06/17 12:24:56;;;;;;;2.83;1.70;;;31.00;99.50;;;;;;5030803;28;20246;-80
2022/06/17 12:27:38;;;;;;;4.43;1.83;;;31.00;99.90;;;;;;5019404;28;20664;-79
2022/06/17 12:30:47;;;;;;;6.13;1.50;;;31.10;99.90;;;;;;5038408;28;20172;-79
2022/06/17 12:33:31;;;;;;;3.25;1.73;;;31.00;99.40;;;;;;5023662;28;20802;-80
2022/06/17 12:36:22;;;;;;;5.47;1.88;;;31.00;97.30;;;;;;5035686;28;20270;-80
2022/06/17 12:39:09;;;;;;;2.28;1.63;;;31.00;98.60;;;;;;5042789;28;20644;-80
2022/06/17 12:42:11;;;;;;;4.68;2.25;;;31.00;98.40;;;;;;5020014;28;20929;-80
2022/06/17 12:45:23;;;;;;;5.45;2.03;;;31.00;99.10;;;;;;5024906;28;20187;-79
2022/06/17 12:48:15;;;;;;;5.45;2.30;;;30.90;99.90;;;;;;5063742;28;20246;-80
2022/06/17 12:54:48;;;;;;;3.53;1.90;;;30.90;99.80;;;;;;5058497;28;20247;-80
2022/06/17 12:57:35;;;;;;;3.63;1.80;;;30.60;99.60;;;;;;5036314;28;20722;-79
2022/06/17 13:00:15;;;;;;;2.72;1.85;;;30.70;99.40;;;;;;5031747;28;20187;-81
2022/06/17 13:03:15;;;;;;;2.42;1.70;;;30.90;97.00;;;;;;5054930;28;20700;-79
2022/06/17 13:05:45;;;;;;;2.42;1.67;;;30.70;97.80;;;;;;5029136;28;20928;-80
2022/06/17 13:08:42;;;;;;;2.95;1.83;;;30.60;98.10;;;;;;5039931;28;20271;-80
2022/06/17 13:11:54;;;;;;;3.33;1.63;;;30.60;98.20;;;;;;5042681;28;20537;-80
2022/06/17 13:14:44;;;;;;;1.88;1.67;;;30.70;96.40;;;;;;5039741;28;20261;-80
2022/06/17 13:17:34;;;;;;;6.20;2.08;;;30.70;97.80;;;;;;5029612;28;20298;-80
2022/06/17 13:20:29;;;;;;;2.47;1.80;;;30.70;99.40;;;;;;5039430;28;20195;-80
2022/06/17 13:23:03;;;;;;;4.35;2.08;;;30.70;99.20;;;;;;5031436;28;20561;-80
2022/06/17 13:25:46;;;;;;;3.55;2.10;;;30.70;99.90;;;;;;5045563;28;20229;-79
2022/06/17 13:28:48;;;;;;;2.42;1.83;;;30.60;99.90;;;;;;5027327;28;20240;-79
2022/06/17 13:31:34;;;;;;;3.20;2.00;;;30.70;99.90;;;;;;5037425;28;20192;-80
2022/06/17 13:34:36;;;;;;;2.83;2.00;;;30.50;99.90;;;;;;5032354;28;20214;-80
2022/06/17 13:37:11;;;;;;;3.47;1.73;;;30.60;99.90;;;;;;5040174;28;20788;-80
2022/06/17 13:39:52;;;;;;;3.83;2.00;;;30.70;99.00;;;;;;5049928;28;20655;-80
2022/06/17 13:42:20;;;;;;;7.55;1.83;;;30.40;98.80;;;;;;5034641;28;20194;-81
2022/06/17 13:45:48;;;;;;;3.70;1.90;;;30.40;99.40;;;;;;5029360;28;20512;-81
2022/06/17 13:48:45;;;;;;;2.42;1.77;;;30.60;98.20;;;;;;5036818;28;20183;-80
2022/06/17 13:51:42;;;;;;;4.78;2.05;;;30.60;98.20;;;;;;5042778;28;20196;-81
2022/06/17 13:54:40;;;;;;;2.90;1.90;;;30.50;98.80;;;;;;5045363;28;20190;-80
2022/06/17 13:57:44;;;;;;;2.83;1.80;;;30.50;97.90;;;;;;5051215;28;20711;-81
2022/06/17 14:00:47;;;;;;;3.83;1.98;;;30.40;98.90;;;;;;5044053;28;20207;-80
2022/06/17 14:03:22;;;;;;;3.95;2.00;;;30.30;97.80;;;;;;5050445;28;20176;-80
2022/06/17 14:06:03;;;;;;;2.80;1.80;;;30.20;97.60;;;;;;5040342;28;20291;-80
2022/06/17 14:09:16;;;;;;;5.18;1.98;;;30.30;98.60;;;;;;5020735;28;20220;-80